Airfield :
LOGIN :

Register | Disclaimer

   EN    FR    IT 

 










Legend :    VFR   Marginal VFR   IFR   Intensive IFR   Very Intensive IFR
Visi :
Ceiling :
>= 8 km
>= 3000ft
5 to 8 km
1000 to 3000 ft
1500m to 5 km
500 to 1000 ft
800 to 1500m
200 to 500 ft
< 800m
< 200 ft
Symbols :   Thunderstorms  Fog  Heavy snow  Heavy precipitations  Wind > 20 kt
SIGMETs :     Misc.  Thunderstorms  Icing  Turbulence  Mountain Waves  Volcanic Ashes






- Airport Elevation : 37 ft


EHVL - Vlieland Heliport

CURRENT METAR :
  • 180411Z AUTO 26023KT 9999 SCT016 BKN020 BKN025 07/04 Q1016 WHT

EXPIRED METARs :
  • 180359Z AUTO 26024KT 9999 FEW016 SCT025 06/03 Q1016 BLU
  • 180349Z AUTO 25024KT 9999 FEW017 SCT024 07/03 Q1016 WHT
  • 180344Z AUTO 25025KT 9999 FEW016 SCT025 07/03 Q1016 BLU
  • 180325Z AUTO 25024KT 9999 FEW017 07/03 Q1016 BLU
  • 180255Z AUTO 25025KT 9999 FEW017 06/03 Q1016 BLU
  • 180240Z AUTO 25025KT 9999 FEW017 07/03 Q1016 BLU
  • 180225Z AUTO 25025KT 9999 SCT017 07/03 Q1016 WHT
  • 180207Z AUTO 25025KT 9999 SCT019 07/03 Q1016 WHT
  • 180155Z AUTO 25025KT 9999 NCD 07/03 Q1016 BLU
  • 180125Z AUTO 25026KT 9999 FEW020 07/04 Q1015 BLU

Expired Forecast.



MET'MAP, your aeronautical weather chart ! - Copyright ORBIFLY December 2007 - Disclaimer

ORBIFLY MET'MAP TEAM :

Programming & Development : Alexandra Zaïnal
Concept & original design : Baudouin d'Aumeries
Assistance for programming : Marc-Olivier Méhu
Technical & hardware support : Manuel Goepfert

Contact : metmap@orbifly.com




SOURCES & CREDITS :

   NOAA